Time;durP1;ratioP1;P1;durP2;ratioP2;P2;SDS_P1;SDS_P2;PMS_P1;PMS_P2;Temp;Humidity;BMP_temperature;BMP_pressure;BME280_temperature;BME280_humidity;BME280_pressure;Samples;Min_cycle;Max_cycle;Signal;HPM_P1;HPM_P2
2024/03/24 00:01:43;;;;;;;1.58;0.73;;;5.20;86.60;;;;;;5135175;27;20043;-72
2024/03/24 00:04:09;;;;;;;1.52;1.08;;;5.20;86.60;;;;;;5117327;28;20035;-73
2024/03/24 00:06:35;;;;;;;1.45;0.70;;;5.30;86.70;;;;;;5116460;28;20039;-74
2024/03/24 00:09:01;;;;;;;0.75;0.65;;;5.30;86.70;;;;;;5117235;28;20039;-73
2024/03/24 00:11:26;;;;;;;1.40;0.88;;;5.30;86.70;;;;;;5135332;27;20131;-73
2024/03/24 00:13:52;;;;;;;2.25;0.70;;;5.30;86.60;;;;;;5135033;27;20042;-72
2024/03/24 00:16:18;;;;;;;2.90;1.05;;;5.40;86.70;;;;;;5116459;28;20504;-73
2024/03/24 00:18:43;;;;;;;2.15;0.75;;;5.40;86.70;;;;;;5098988;28;20498;-73
2024/03/24 00:21:09;;;;;;;0.88;0.82;;;5.40;86.60;;;;;;5099550;28;20043;-72
2024/03/24 00:23:35;;;;;;;1.95;0.90;;;5.40;86.60;;;;;;5134577;27;20505;-72
2024/03/24 00:26:00;;;;;;;3.08;1.02;;;5.50;86.70;;;;;;5116691;28;20034;-72
2024/03/24 00:28:26;;;;;;;1.60;0.80;;;5.50;86.70;;;;;;5135174;27;20035;-72
2024/03/24 00:30:52;;;;;;;1.15;0.73;;;5.50;86.70;;;;;;5116202;28;20043;-71
2024/03/24 00:33:17;;;;;;;2.22;0.75;;;5.50;86.60;;;;;;5134656;27;20043;-73
2024/03/24 00:35:43;;;;;;;0.85;0.65;;;5.50;86.60;;;;;;5082339;28;20375;-72
2024/03/24 00:38:09;;;;;;;1.25;0.90;;;5.50;86.60;;;;;;5116406;28;20564;-73
2024/03/24 00:40:34;;;;;;;3.25;1.10;;;5.50;86.60;;;;;;5115683;28;20130;-72
2024/03/24 00:43:00;;;;;;;1.15;0.80;;;5.60;86.70;;;;;;5099009;28;20512;-72
2024/03/24 00:45:26;;;;;;;1.75;1.10;;;5.60;86.70;;;;;;5133998;27;20057;-74
2024/03/24 00:47:54;;;;;;;1.23;0.80;;;5.60;86.80;;;;;;5134220;27;20050;-73
2024/03/24 00:50:23;;;;;;;1.50;0.82;;;5.60;86.90;;;;;;5134235;27;20065;-73
2024/03/24 00:52:48;;;;;;;2.55;1.10;;;5.60;86.90;;;;;;5115996;28;20035;-74
2024/03/24 00:55:14;;;;;;;1.67;1.00;;;5.60;87.00;;;;;;5134009;27;20383;-73
2024/03/24 00:57:40;;;;;;;1.35;1.00;;;5.70;87.00;;;;;;5116043;28;20050;-74
2024/03/24 01:00:07;;;;;;;1.83;1.20;;;5.70;87.00;;;;;;5133815;27;20035;-74
2024/03/24 01:02:33;;;;;;;1.85;1.20;;;5.70;87.10;;;;;;5116134;27;20043;-74
2024/03/24 01:05:00;;;;;;;2.05;1.33;;;5.70;87.10;;;;;;5098572;28;20042;-73
2024/03/24 01:07:30;;;;;;;2.08;1.08;;;5.70;87.20;;;;;;5115169;28;20423;-74
2024/03/24 01:09:56;;;;;;;2.03;1.48;;;5.60;87.30;;;;;;5099177;28;20028;-73
2024/03/24 01:12:23;;;;;;;2.42;1.23;;;5.60;87.30;;;;;;5115164;27;20046;-72
2024/03/24 01:14:50;;;;;;;1.75;1.10;;;5.60;87.40;;;;;;5115059;28;20047;-73
2024/03/24 01:17:15;;;;;;;1.85;1.15;;;5.60;87.50;;;;;;5098137;28;20035;-73
2024/03/24 01:19:41;;;;;;;2.17;1.30;;;5.60;87.60;;;;;;5115158;27;20050;-73
2024/03/24 01:22:07;;;;;;;2.65;1.30;;;5.60;87.70;;;;;;5133384;27;20405;-74
2024/03/24 01:24:33;;;;;;;2.92;1.27;;;5.60;87.70;;;;;;5133774;27;20072;-73
2024/03/24 01:26:59;;;;;;;2.65;1.30;;;5.60;87.80;;;;;;5098055;28;20063;-73
2024/03/24 01:29:25;;;;;;;2.72;1.08;;;5.60;87.90;;;;;;5133837;27;20072;-74
2024/03/24 01:31:50;;;;;;;2.72;1.38;;;5.60;88.00;;;;;;5132919;27;20043;-72
2024/03/24 01:34:16;;;;;;;1.65;1.20;;;5.60;88.00;;;;;;5097915;28;20077;-72
2024/03/24 01:36:42;;;;;;;1.50;1.05;;;5.60;88.10;;;;;;5098002;28;20047;-73
2024/03/24 01:39:09;;;;;;;2.92;1.10;;;5.60;88.10;;;;;;5133160;27;20039;-72
2024/03/24 01:41:36;;;;;;;1.45;1.08;;;5.60;88.20;;;;;;5133417;27;20039;-73
2024/03/24 01:44:02;;;;;;;3.75;1.20;;;5.60;88.20;;;;;;5133571;27;20095;-73
2024/03/24 01:46:28;;;;;;;1.77;1.10;;;5.60;88.30;;;;;;5114970;28;20069;-71
2024/03/24 01:48:54;;;;;;;1.67;1.10;;;5.60;88.40;;;;;;5115011;28;20039;-73
2024/03/24 01:51:22;;;;;;;1.67;1.20;;;5.60;88.40;;;;;;5133066;27;20486;-73
2024/03/24 01:53:49;;;;;;;3.58;1.52;;;5.60;88.50;;;;;;5114396;27;20444;-73
2024/03/24 01:56:16;;;;;;;1.63;1.35;;;5.60;88.50;;;;;;5115037;27;20039;-73
2024/03/24 01:58:42;;;;;;;1.27;1.02;;;5.50;88.50;;;;;;5097884;27;20050;-73
2024/03/24 02:01:08;;;;;;;2.33;1.30;;;5.60;88.60;;;;;;5114571;28;20039;-73
2024/03/24 02:03:36;;;;;;;2.47;1.45;;;5.60;88.60;;;;;;5114977;27;20035;-73
2024/03/24 02:06:03;;;;;;;2.80;1.10;;;5.70;89.30;;;;;;5114528;28;20059;-73
2024/03/24 02:08:31;;;;;;;2.25;1.48;;;5.60;88.60;;;;;;5097654;27;20118;-74
2024/03/24 02:10:58;;;;;;;2.25;1.35;;;5.60;88.70;;;;;;5132837;27;20484;-72
2024/03/24 02:13:24;;;;;;;1.80;1.38;;;5.70;88.70;;;;;;5097482;28;20032;-73
2024/03/24 02:15:53;;;;;;;1.67;1.20;;;5.70;88.70;;;;;;5132595;27;20038;-73
2024/03/24 02:18:20;;;;;;;2.33;1.50;;;5.70;89.40;;;;;;5114209;28;20130;-74
2024/03/24 02:20:46;;;;;;;2.28;1.40;;;5.70;88.80;;;;;;5111817;28;20086;-73
2024/03/24 02:23:11;;;;;;;1.88;1.30;;;5.60;88.70;;;;;;5132788;28;20027;-72
2024/03/24 02:25:37;;;;;;;1.90;1.10;;;5.70;88.80;;;;;;5097284;28;20046;-72
2024/03/24 02:28:03;;;;;;;4.38;1.20;;;5.70;88.80;;;;;;5132682;27;20035;-73
2024/03/24 02:30:28;;;;;;;2.03;1.30;;;5.80;88.90;;;;;;5132416;27;20042;-73
2024/03/24 02:32:54;;;;;;;1.67;1.10;;;5.80;88.90;;;;;;5132851;27;20487;-73
2024/03/24 02:35:20;;;;;;;1.27;1.10;;;5.80;88.90;;;;;;5132342;27;20039;-73
2024/03/24 02:37:46;;;;;;;2.20;1.10;;;5.90;88.90;;;;;;5097438;28;20039;-73
2024/03/24 02:40:12;;;;;;;2.15;1.27;;;5.80;88.90;;;;;;5132780;27;20035;-73
2024/03/24 02:42:38;;;;;;;1.77;1.00;;;5.80;89.20;;;;;;5135128;27;20028;-73
2024/03/24 02:45:06;;;;;;;3.83;1.15;;;5.80;88.90;;;;;;5117531;28;20035;-74
2024/03/24 02:47:32;;;;;;;1.90;0.90;;;5.80;88.90;;;;;;5135917;27;20035;-73
2024/03/24 02:49:58;;;;;;;1.75;1.30;;;5.80;89.00;;;;;;5117402;28;20042;-73
2024/03/24 02:52:24;;;;;;;1.02;0.93;;;5.90;89.70;;;;;;5113333;28;20043;-74
2024/03/24 02:54:50;;;;;;;1.88;1.25;;;5.80;89.80;;;;;;5117416;28;20039;-73
2024/03/24 02:57:16;;;;;;;1.85;1.10;;;5.80;89.20;;;;;;5117429;27;20398;-75
2024/03/24 02:59:41;;;;;;;1.33;0.98;;;5.80;89.30;;;;;;5117459;27;20039;-73
2024/03/24 03:02:07;;;;;;;1.75;1.27;;;5.80;89.30;;;;;;5117369;28;20047;-73
2024/03/24 03:04:33;;;;;;;1.70;1.30;;;5.80;89.40;;;;;;5135988;27;20390;-74
2024/03/24 03:06:59;;;;;;;2.38;1.30;;;5.90;89.40;;;;;;5117611;28;20058;-74
2024/03/24 03:09:26;;;;;;;3.20;1.50;;;5.80;89.40;;;;;;5117911;27;20039;-74
2024/03/24 03:11:53;;;;;;;2.47;1.38;;;5.80;89.40;;;;;;5136092;27;20043;-73
2024/03/24 03:14:19;;;;;;;3.88;1.45;;;5.90;89.50;;;;;;5135711;27;20073;-74
2024/03/24 03:16:45;;;;;;;2.90;1.20;;;5.90;89.50;;;;;;5135636;27;20039;-74
2024/03/24 03:19:11;;;;;;;2.85;1.42;;;5.90;89.60;;;;;;5135322;27;20050;-73
2024/03/24 03:21:37;;;;;;;1.15;0.98;;;5.80;89.60;;;;;;5135766;27;20536;-74
2024/03/24 03:24:03;;;;;;;2.55;1.30;;;5.80;89.70;;;;;;5135354;27;20607;-74
2024/03/24 03:26:29;;;;;;;1.95;1.13;;;5.80;89.70;;;;;;5116961;28;20114;-74
2024/03/24 03:28:55;;;;;;;1.20;0.70;;;5.90;89.80;;;;;;5099977;27;20165;-74
2024/03/24 03:31:23;;;;;;;1.88;1.23;;;5.90;89.90;;;;;;5135827;27;20043;-74
2024/03/24 03:33:49;;;;;;;2.05;1.20;;;5.90;89.90;;;;;;5135095;27;20070;-74
2024/03/24 03:36:15;;;;;;;2.25;1.10;;;5.90;89.90;;;;;;5135791;27;20115;-74
2024/03/24 03:38:40;;;;;;;3.03;1.50;;;5.90;90.00;;;;;;5135407;27;20398;-74
2024/03/24 03:41:06;;;;;;;2.08;1.17;;;5.90;90.00;;;;;;5135065;27;20539;-74
2024/03/24 03:43:32;;;;;;;1.77;1.20;;;5.90;90.00;;;;;;5116414;28;20056;-75
2024/03/24 03:45:58;;;;;;;2.60;1.20;;;6.00;90.00;;;;;;5099966;28;20043;-74
2024/03/24 03:48:24;;;;;;;1.42;1.02;;;5.90;90.00;;;;;;5117122;27;20062;-74
2024/03/24 03:50:49;;;;;;;2.53;0.98;;;5.90;90.00;;;;;;5116635;27;20084;-74
2024/03/24 03:53:22;;;;;;;2.92;1.05;;;5.90;90.10;;;;;;5116292;27;20483;-72
2024/03/24 03:55:50;;;;;;;1.63;0.90;;;6.00;90.10;;;;;;5117456;28;20031;-72
2024/03/24 03:58:19;;;;;;;1.15;0.80;;;6.00;90.20;;;;;;5091335;28;20065;-72
2024/03/24 04:00:45;;;;;;;1.73;0.90;;;6.00;90.40;;;;;;5091766;28;20130;-72
2024/03/24 04:03:12;;;;;;;1.45;0.98;;;6.00;90.20;;;;;;5074533;28;20079;-72
2024/03/24 04:05:39;;;;;;;2.42;1.20;;;6.00;90.20;;;;;;5056894;28;20048;-73
2024/03/24 04:08:07;;;;;;;1.98;1.05;;;6.10;90.20;;;;;;5092252;28;20044;-73
2024/03/24 04:10:33;;;;;;;2.65;0.80;;;6.00;90.00;;;;;;5058573;28;20135;-72
2024/03/24 04:12:59;;;;;;;0.73;0.40;;;5.90;90.00;;;;;;5074818;28;20044;-74
2024/03/24 04:15:25;;;;;;;0.82;0.40;;;5.60;90.20;;;;;;5091834;28;20044;-73
2024/03/24 04:17:54;;;;;;;0.38;0.30;;;5.40;90.30;;;;;;5074615;28;20028;-73
2024/03/24 04:20:19;;;;;;;0.30;0.30;;;5.30;90.50;;;;;;5034898;28;20040;-74
2024/03/24 04:22:46;;;;;;;0.57;0.30;;;5.10;90.60;;;;;;5001098;28;20049;-73
2024/03/24 04:25:12;;;;;;;0.20;0.20;;;5.10;90.70;;;;;;5051735;28;20128;-73
2024/03/24 04:27:38;;;;;;;0.52;0.50;;;5.10;90.80;;;;;;5050999;28;20128;-73
2024/03/24 04:30:04;;;;;;;0.20;0.20;;;5.00;90.80;;;;;;5070990;28;20036;-74
2024/03/24 04:32:31;;;;;;;0.30;0.30;;;5.00;90.80;;;;;;5091413;28;20948;-73
2024/03/24 04:34:56;;;;;;;0.30;0.30;;;5.00;90.80;;;;;;5074288;28;20036;-73
2024/03/24 04:37:22;;;;;;;0.85;0.30;;;5.00;90.80;;;;;;5057662;28;20054;-73
2024/03/24 04:39:48;;;;;;;0.75;0.45;;;5.00;90.80;;;;;;5057955;28;20159;-73
2024/03/24 04:42:13;;;;;;;1.13;0.30;;;5.00;90.80;;;;;;5074229;28;20490;-73
2024/03/24 04:44:40;;;;;;;0.20;0.20;;;5.20;90.80;;;;;;5091642;28;20552;-73
2024/03/24 04:47:05;;;;;;;0.30;0.30;;;5.10;90.70;;;;;;5091852;28;20048;-72
2024/03/24 04:49:31;;;;;;;0.45;0.20;;;5.10;90.70;;;;;;5057458;28;20081;-73
2024/03/24 04:51:57;;;;;;;0.22;0.22;;;5.10;90.60;;;;;;5106988;28;20035;-73
2024/03/24 04:54:23;;;;;;;0.80;0.40;;;5.10;90.60;;;;;;5115490;28;20043;-73
2024/03/24 04:56:49;;;;;;;0.77;0.45;;;5.10;90.60;;;;;;5115684;28;20091;-73
2024/03/24 04:59:14;;;;;;;0.25;0.20;;;5.10;90.60;;;;;;5115271;28;20046;-73
2024/03/24 05:01:40;;;;;;;0.20;0.20;;;5.10;90.60;;;;;;5133923;28;20390;-73
2024/03/24 05:04:06;;;;;;;0.22;0.22;;;5.10;90.60;;;;;;5134334;28;20129;-74
2024/03/24 05:06:32;;;;;;;0.30;0.30;;;5.10;90.60;;;;;;5114763;28;20042;-73
2024/03/24 05:08:58;;;;;;;0.30;0.30;;;5.10;90.60;;;;;;5115449;27;20035;-73
2024/03/24 05:11:25;;;;;;;1.00;0.45;;;5.10;90.70;;;;;;5134052;27;20115;-73
2024/03/24 05:13:53;;;;;;;1.20;0.22;;;5.10;90.70;;;;;;5134404;27;20096;-73
2024/03/24 05:16:19;;;;;;;0.20;0.20;;;5.00;90.70;;;;;;5133619;27;20043;-73
2024/03/24 05:18:45;;;;;;;0.55;0.30;;;5.00;90.70;;;;;;5133659;28;20050;-72
2024/03/24 05:21:11;;;;;;;0.45;0.30;;;5.00;90.70;;;;;;5133798;27;20047;-72
2024/03/24 05:23:37;;;;;;;0.20;0.20;;;5.00;90.70;;;;;;5115481;28;20529;-73
2024/03/24 05:26:04;;;;;;;0.30;0.20;;;5.00;90.70;;;;;;5133628;27;20050;-73
2024/03/24 05:28:29;;;;;;;0.32;0.30;;;5.00;90.80;;;;;;5134230;27;20054;-72
2024/03/24 05:30:57;;;;;;;0.20;0.20;;;5.00;90.80;;;;;;5115816;28;20074;-72
2024/03/24 05:33:23;;;;;;;1.27;0.30;;;5.00;90.80;;;;;;5115950;28;20054;-72
2024/03/24 05:35:58;;;;;;;0.25;0.25;;;5.00;90.80;;;;;;5133793;27;20370;-72
2024/03/24 05:38:23;;;;;;;0.20;0.20;;;5.00;90.80;;;;;;5115145;27;20074;-72
2024/03/24 05:40:57;;;;;;;0.30;0.30;;;5.00;90.80;;;;;;5098152;28;20129;-75
2024/03/24 05:43:23;;;;;;;0.30;0.30;;;5.00;90.80;;;;;;5133311;27;20039;-73
2024/03/24 05:45:52;;;;;;;0.40;0.20;;;4.90;90.70;;;;;;5133237;27;20091;-72
2024/03/24 05:48:18;;;;;;;0.45;0.30;;;5.00;90.80;;;;;;5133270;27;20486;-75
2024/03/24 05:50:44;;;;;;;0.38;0.30;;;5.00;90.80;;;;;;5114865;28;20072;-75
2024/03/24 05:53:10;;;;;;;1.48;0.35;;;5.00;91.00;;;;;;5133272;27;20050;-72
2024/03/24 05:55:36;;;;;;;0.30;0.30;;;5.00;90.70;;;;;;5115124;28;20470;-74
2024/03/24 05:58:04;;;;;;;0.22;0.22;;;5.00;90.70;;;;;;5133154;27;20041;-74
2024/03/24 06:00:29;;;;;;;0.30;0.30;;;5.20;90.70;;;;;;5115764;28;20042;-74
2024/03/24 06:02:55;;;;;;;0.40;0.30;;;5.10;90.70;;;;;;5133539;28;20142;-74
2024/03/24 06:05:24;;;;;;;0.30;0.28;;;5.10;90.70;;;;;;5132850;27;20031;-74
2024/03/24 06:07:50;;;;;;;0.30;0.30;;;5.10;90.70;;;;;;5133048;27;20031;-74
2024/03/24 06:10:15;;;;;;;0.30;0.30;;;5.20;90.70;;;;;;5115084;28;20031;-74
2024/03/24 06:12:41;;;;;;;0.30;0.30;;;5.20;90.60;;;;;;5114690;28;20509;-74
2024/03/24 06:15:07;;;;;;;0.20;0.20;;;5.20;90.60;;;;;;5133009;27;20043;-75
2024/03/24 06:17:33;;;;;;;0.50;0.47;;;5.30;90.50;;;;;;5116688;27;20050;-74
2024/03/24 06:19:59;;;;;;;1.02;0.30;;;5.40;90.50;;;;;;5136457;27;20067;-74
2024/03/24 06:22:24;;;;;;;1.25;0.70;;;5.40;90.40;;;;;;5118041;28;20035;-74
2024/03/24 06:24:53;;;;;;;0.70;0.43;;;5.40;90.40;;;;;;5136450;27;20039;-74
2024/03/24 06:27:18;;;;;;;0.68;0.40;;;5.30;90.40;;;;;;5136662;27;20043;-74
2024/03/24 06:29:44;;;;;;;2.08;0.63;;;5.30;90.40;;;;;;5118402;28;20043;-74
2024/03/24 06:32:10;;;;;;;1.75;0.55;;;5.20;90.40;;;;;;5118108;28;20046;-74
2024/03/24 06:34:35;;;;;;;0.60;0.40;;;5.20;90.50;;;;;;5118202;28;20035;-74
2024/03/24 06:37:01;;;;;;;1.08;0.50;;;5.10;90.60;;;;;;5136164;27;20050;-74
2024/03/24 06:39:27;;;;;;;1.58;0.60;;;5.10;90.60;;;;;;5136934;27;20118;-73
2024/03/24 06:41:54;;;;;;;0.98;0.65;;;5.10;90.60;;;;;;5118153;27;20079;-74
2024/03/24 06:44:23;;;;;;;0.90;0.50;;;5.10;90.60;;;;;;5082392;28;20139;-74
2024/03/24 06:46:48;;;;;;;0.43;0.43;;;5.10;90.60;;;;;;5117745;28;20064;-74
2024/03/24 06:49:14;;;;;;;0.73;0.50;;;5.10;90.60;;;;;;5136227;27;20046;-73
2024/03/24 06:51:40;;;;;;;0.60;0.55;;;5.20;90.60;;;;;;5136126;27;20118;-74
2024/03/24 06:54:05;;;;;;;0.90;0.38;;;5.30;90.60;;;;;;5118214;28;20513;-74
2024/03/24 06:56:31;;;;;;;1.20;0.45;;;5.30;90.60;;;;;;5135948;27;20039;-75
2024/03/24 06:58:57;;;;;;;1.80;0.57;;;5.40;90.60;;;;;;5135968;27;20046;-74
2024/03/24 07:01:23;;;;;;;1.80;0.47;;;5.40;90.60;;;;;;5136465;27;20039;-74
2024/03/24 07:03:49;;;;;;;0.43;0.43;;;5.30;90.60;;;;;;5083438;28;20375;-74
2024/03/24 07:06:14;;;;;;;0.70;0.50;;;5.40;90.60;;;;;;5136388;27;20532;-74
2024/03/24 07:08:41;;;;;;;0.30;0.30;;;5.50;90.60;;;;;;5136151;27;20394;-74
2024/03/24 07:11:08;;;;;;;0.30;0.30;;;5.50;90.60;;;;;;5117690;28;20041;-74
2024/03/24 07:13:33;;;;;;;0.30;0.30;;;5.50;90.60;;;;;;5117440;28;20035;-74
2024/03/24 07:15:59;;;;;;;1.17;0.47;;;5.60;90.60;;;;;;5135886;27;20055;-74
2024/03/24 07:18:25;;;;;;;0.35;0.35;;;5.60;90.50;;;;;;5117320;27;20122;-74
2024/03/24 07:20:59;;;;;;;0.65;0.50;;;5.70;90.60;;;;;;5136105;27;20043;-74
2024/03/24 07:23:25;;;;;;;0.35;0.35;;;5.60;90.50;;;;;;5115686;28;20459;-74
2024/03/24 07:25:54;;;;;;;1.08;0.30;;;5.60;90.50;;;;;;5135493;27;20035;-74
2024/03/24 07:28:20;;;;;;;2.05;0.40;;;5.70;90.60;;;;;;5134595;27;20039;-74
2024/03/24 07:30:46;;;;;;;0.88;0.40;;;5.70;90.60;;;;;;5099672;28;20106;-74
2024/03/24 07:33:12;;;;;;;1.67;0.60;;;5.70;90.60;;;;;;5100134;28;20038;-74
2024/03/24 07:35:38;;;;;;;0.40;0.40;;;5.80;90.60;;;;;;5135918;27;20038;-74
2024/03/24 07:38:03;;;;;;;0.93;0.50;;;5.90;90.70;;;;;;5117042;28;20379;-74
2024/03/24 07:40:29;;;;;;;1.17;0.50;;;5.90;90.60;;;;;;5135697;27;20046;-74
2024/03/24 07:42:55;;;;;;;0.80;0.52;;;6.00;90.50;;;;;;5117190;28;20043;-74
2024/03/24 07:45:24;;;;;;;1.00;0.70;;;6.10;90.50;;;;;;5135303;27;20543;-74
2024/03/24 07:47:51;;;;;;;1.65;0.90;;;6.10;90.40;;;;;;5071789;28;20385;-74
2024/03/24 07:50:18;;;;;;;2.20;0.90;;;6.10;90.40;;;;;;5071851;28;20059;-74
2024/03/24 07:52:43;;;;;;;3.95;0.90;;;6.10;90.50;;;;;;5071766;28;20055;-74
2024/03/24 07:55:09;;;;;;;2.42;0.93;;;6.10;90.50;;;;;;5071915;28;20407;-75
2024/03/24 07:57:37;;;;;;;1.60;0.88;;;6.10;90.50;;;;;;5055002;28;20547;-74
2024/03/24 08:00:04;;;;;;;0.95;0.80;;;6.10;90.60;;;;;;5038616;28;20485;-75
2024/03/24 08:02:29;;;;;;;1.55;0.90;;;6.20;90.50;;;;;;5055687;28;20486;-74
2024/03/24 08:04:55;;;;;;;0.88;0.60;;;6.30;90.50;;;;;;5038115;28;20136;-74
2024/03/24 08:07:21;;;;;;;2.33;1.10;;;6.40;90.40;;;;;;5071829;28;20040;-74
2024/03/24 08:09:47;;;;;;;2.67;0.90;;;6.40;90.30;;;;;;5054883;28;20044;-74
2024/03/24 08:12:12;;;;;;;1.75;0.88;;;6.50;90.40;;;;;;5071988;28;20521;-74
2024/03/24 08:14:41;;;;;;;2.67;0.82;;;6.50;90.40;;;;;;5038060;28;20369;-74
2024/03/24 08:17:06;;;;;;;3.88;1.25;;;6.60;90.40;;;;;;5055080;28;20487;-74
2024/03/24 08:19:32;;;;;;;1.67;0.80;;;6.70;90.30;;;;;;5123590;28;20130;-74
2024/03/24 08:21:58;;;;;;;3.05;1.35;;;6.70;90.30;;;;;;5134509;28;20043;-74
2024/03/24 08:24:23;;;;;;;2.50;1.13;;;6.70;90.30;;;;;;5135114;28;20031;-74
2024/03/24 08:26:49;;;;;;;2.47;1.20;;;6.80;90.40;;;;;;5134564;28;20031;-74
2024/03/24 08:29:15;;;;;;;2.30;1.30;;;7.00;90.40;;;;;;5116118;28;20042;-74
2024/03/24 08:31:41;;;;;;;2.88;1.40;;;7.20;90.20;;;;;;5134684;27;20047;-74
2024/03/24 08:34:07;;;;;;;4.93;1.60;;;7.20;90.00;;;;;;5116005;27;20103;-73
2024/03/24 08:36:33;;;;;;;2.85;1.23;;;7.20;89.90;;;;;;5099112;28;20563;-74
2024/03/24 08:38:59;;;;;;;2.55;1.20;;;7.20;90.00;;;;;;5099123;28;20077;-73
2024/03/24 08:41:25;;;;;;;4.07;1.80;;;7.20;90.10;;;;;;5133868;27;20396;-73
2024/03/24 08:43:50;;;;;;;4.25;1.60;;;7.20;90.10;;;;;;5134847;27;20039;-74
2024/03/24 08:46:16;;;;;;;3.20;1.40;;;7.10;90.10;;;;;;5116401;28;20546;-74
2024/03/24 08:48:42;;;;;;;5.03;1.92;;;7.00;90.20;;;;;;5134001;27;20047;-74
2024/03/24 08:51:07;;;;;;;5.47;1.58;;;7.00;90.20;;;;;;5116105;28;20043;-73
2024/03/24 08:53:33;;;;;;;3.58;1.40;;;7.00;90.40;;;;;;5134337;28;20035;-74
2024/03/24 08:55:59;;;;;;;4.05;1.40;;;7.00;90.40;;;;;;5134012;27;20486;-73
2024/03/24 08:58:24;;;;;;;3.13;1.33;;;7.10;90.40;;;;;;5134169;27;20039;-74
2024/03/24 09:00:52;;;;;;;2.90;1.20;;;7.10;90.70;;;;;;5115973;28;20043;-74
2024/03/24 09:03:18;;;;;;;2.55;1.20;;;7.20;90.40;;;;;;5134156;27;20035;-74
2024/03/24 09:05:44;;;;;;;2.03;1.00;;;7.30;90.40;;;;;;5134357;27;20544;-74
2024/03/24 09:08:10;;;;;;;1.27;1.00;;;7.30;90.30;;;;;;5115397;27;20047;-74
2024/03/24 09:10:35;;;;;;;3.28;1.10;;;7.40;90.30;;;;;;5115556;28;20053;-74
2024/03/24 09:13:02;;;;;;;2.42;1.00;;;7.50;90.20;;;;;;5115531;28;20045;-74
2024/03/24 09:15:28;;;;;;;2.65;1.10;;;7.40;90.10;;;;;;5133736;27;20065;-74
2024/03/24 09:17:53;;;;;;;1.98;1.00;;;7.40;90.10;;;;;;5115476;28;20051;-74
2024/03/24 09:20:19;;;;;;;1.77;0.90;;;7.30;90.20;;;;;;5134086;27;20047;-74
2024/03/24 09:22:46;;;;;;;1.48;0.80;;;7.40;90.20;;;;;;5133691;27;20088;-74
2024/03/24 09:25:11;;;;;;;1.90;0.90;;;7.30;90.30;;;;;;5133769;27;20046;-74
2024/03/24 09:27:37;;;;;;;2.60;0.80;;;7.30;90.40;;;;;;5115666;28;20039;-74
2024/03/24 09:30:04;;;;;;;2.75;0.95;;;7.20;90.40;;;;;;5098142;28;20107;-74
2024/03/24 09:32:30;;;;;;;1.38;0.70;;;7.20;90.40;;;;;;5133552;27;20039;-74
2024/03/24 09:34:56;;;;;;;1.65;0.82;;;7.10;90.50;;;;;;5133942;27;20041;-74
2024/03/24 09:37:22;;;;;;;3.67;1.08;;;7.00;90.50;;;;;;5115542;28;20401;-74
2024/03/24 09:39:48;;;;;;;1.30;0.80;;;7.10;90.60;;;;;;5133930;27;20053;-74
2024/03/24 09:42:18;;;;;;;1.27;0.80;;;7.00;90.60;;;;;;5097862;27;20130;-74
2024/03/24 09:44:44;;;;;;;1.27;0.60;;;7.10;90.70;;;;;;5133477;27;20035;-75
2024/03/24 09:47:10;;;;;;;2.03;0.90;;;7.00;90.70;;;;;;5133426;27;20057;-75
2024/03/24 09:49:38;;;;;;;1.08;0.80;;;7.00;90.60;;;;;;5115306;27;20046;-74
2024/03/24 09:52:07;;;;;;;1.88;0.80;;;7.00;90.60;;;;;;5114443;28;20058;-74
2024/03/24 09:54:44;;;;;;;3.88;0.90;;;6.90;90.60;;;;;;5115149;27;20043;-75
2024/03/24 10:00:28;;;;;;;2.30;0.68;;;6.70;90.80;;;;;;4975666;28;20066;-75
2024/03/24 10:03:51;;;;;;;1.50;0.75;;;6.70;90.80;;;;;;4957510;28;20054;-73
2024/03/24 10:06:17;;;;;;;1.85;0.73;;;6.70;90.80;;;;;;4930950;29;20041;-74
2024/03/24 10:08:44;;;;;;;1.77;0.80;;;6.70;90.80;;;;;;4952077;29;20130;-74
2024/03/24 10:11:23;;;;;;;1.00;0.50;;;6.60;90.80;;;;;;4934645;29;20168;-74
2024/03/24 10:13:49;;;;;;;0.50;0.50;;;6.80;90.90;;;;;;4933124;29;20055;-73
2024/03/24 10:16:15;;;;;;;1.25;0.63;;;6.60;90.80;;;;;;4935767;29;20051;-73
2024/03/24 10:18:40;;;;;;;0.95;0.60;;;6.60;90.80;;;;;;4936100;29;20503;-74
2024/03/24 10:21:10;;;;;;;1.60;0.82;;;6.70;90.90;;;;;;4935716;29;20055;-75
2024/03/24 10:23:38;;;;;;;1.45;0.43;;;6.90;90.80;;;;;;4935744;29;20051;-75
2024/03/24 10:26:04;;;;;;;0.75;0.50;;;7.00;90.80;;;;;;4936020;29;20051;-74
2024/03/24 10:28:30;;;;;;;1.65;0.60;;;7.10;90.70;;;;;;4979031;28;20061;-74
2024/03/24 10:31:11;;;;;;;2.75;0.80;;;7.30;90.60;;;;;;4973866;28;20034;-73
2024/03/24 10:33:38;;;;;;;2.13;0.60;;;7.40;90.40;;;;;;4974103;28;20042;-73
2024/03/24 10:36:06;;;;;;;1.60;0.65;;;7.40;90.20;;;;;;4995268;28;20056;-75
2024/03/24 10:38:33;;;;;;;3.50;1.00;;;7.50;90.20;;;;;;5093777;28;20059;-74
2024/03/24 10:40:59;;;;;;;1.67;0.68;;;7.50;90.30;;;;;;5110292;28;20116;-75
2024/03/24 10:43:26;;;;;;;1.23;0.70;;;7.40;90.30;;;;;;5096885;28;20038;-76
2024/03/24 10:45:53;;;;;;;0.73;0.70;;;7.50;90.60;;;;;;5113536;28;20402;-75
2024/03/24 10:48:34;;;;;;;1.75;0.60;;;7.50;90.30;;;;;;5112945;28;20039;-75
2024/03/24 10:51:02;;;;;;;3.00;0.90;;;7.60;90.30;;;;;;5132729;28;20422;-75
2024/03/24 10:53:31;;;;;;;2.75;0.65;;;7.70;90.30;;;;;;5080499;28;20118;-76
2024/03/24 10:55:58;;;;;;;1.73;0.70;;;7.90;90.20;;;;;;5114957;28;20074;-74
2024/03/24 10:58:24;;;;;;;2.40;0.60;;;7.90;90.20;;;;;;5133128;28;20035;-74
2024/03/24 11:00:52;;;;;;;2.83;0.73;;;8.00;90.20;;;;;;5114443;28;20043;-75
2024/03/24 11:03:20;;;;;;;1.20;0.60;;;8.10;90.10;;;;;;5053430;28;20075;-74
2024/03/24 11:05:47;;;;;;;3.13;0.98;;;8.10;90.00;;;;;;5015800;28;20511;-73
2024/03/24 11:08:15;;;;;;;2.50;0.70;;;8.10;90.00;;;;;;5032744;28;20121;-72
2024/03/24 11:10:46;;;;;;;1.45;0.80;;;8.20;90.00;;;;;;5032781;28;20041;-72
2024/03/24 11:13:14;;;;;;;;;;;8.20;90.30;;;;;;5016955;28;20045;-72
2024/03/24 11:15:41;;;;;;;1.92;0.63;;;8.20;90.00;;;;;;5016055;28;19963;-73
2024/03/24 11:18:28;;;;;;;3.10;0.80;;;8.40;90.10;;;;;;5033550;28;20144;-73
2024/03/24 11:20:58;;;;;;;4.10;1.35;;;8.50;89.80;;;;;;5032667;28;20547;-74
2024/03/24 11:23:34;;;;;;;1.48;0.90;;;8.60;89.60;;;;;;5016187;28;20045;-72
2024/03/24 11:26:04;;;;;;;2.35;1.00;;;8.60;89.70;;;;;;5033081;28;20045;-75
2024/03/24 11:28:48;;;;;;;2.75;0.88;;;8.70;89.80;;;;;;5032390;28;20141;-72
2024/03/24 11:31:31;;;;;;;3.28;1.10;;;8.80;89.40;;;;;;5015884;28;20045;-73
2024/03/24 11:34:17;;;;;;;3.97;1.50;;;9.00;89.40;;;;;;5047084;28;20052;-72
2024/03/24 11:36:47;;;;;;;2.08;0.90;;;9.20;89.10;;;;;;5090619;28;20070;-72
2024/03/24 11:39:13;;;;;;;2.75;1.10;;;9.30;88.80;;;;;;5135451;27;20558;-72
2024/03/24 11:42:09;;;;;;;4.82;1.17;;;9.30;88.50;;;;;;5116744;28;20104;-72
2024/03/24 11:44:35;;;;;;;5.18;1.20;;;9.20;88.50;;;;;;5135562;27;20490;-71
2024/03/24 11:47:03;;;;;;;3.25;0.90;;;9.20;88.70;;;;;;5135136;27;20031;-71
2024/03/24 11:49:41;;;;;;;2.65;1.13;;;9.10;89.00;;;;;;5100159;28;20031;-71
2024/03/24 11:52:07;;;;;;;3.65;0.98;;;9.10;89.20;;;;;;5135703;27;20115;-71
2024/03/24 11:54:36;;;;;;;5.43;1.08;;;9.00;89.40;;;;;;5135211;28;20043;-71
2024/03/24 11:57:04;;;;;;;2.97;1.30;;;8.90;89.40;;;;;;5116607;28;20053;-71
2024/03/24 11:59:29;;;;;;;3.67;1.25;;;8.90;89.50;;;;;;5117121;28;20043;-70
2024/03/24 12:01:57;;;;;;;6.35;1.23;;;8.80;89.50;;;;;;5135425;27;20046;-72
2024/03/24 12:04:25;;;;;;;3.00;1.40;;;8.70;89.60;;;;;;5135304;27;20035;-72
2024/03/24 12:06:53;;;;;;;2.85;1.27;;;8.60;89.70;;;;;;5099772;28;20045;-72
2024/03/24 12:09:19;;;;;;;3.15;0.90;;;8.50;90.00;;;;;;5079232;28;20040;-73
2024/03/24 12:11:44;;;;;;;4.70;1.63;;;8.40;90.00;;;;;;5114905;28;20137;-72
2024/03/24 12:14:10;;;;;;;3.70;1.42;;;8.40;90.00;;;;;;5116192;27;20093;-72
2024/03/24 12:16:37;;;;;;;2.90;1.05;;;8.30;90.10;;;;;;5134714;27;20043;-73
2024/03/24 12:19:03;;;;;;;2.35;0.90;;;8.40;90.20;;;;;;5135125;27;20039;-72
2024/03/24 12:21:31;;;;;;;2.65;0.80;;;8.40;90.10;;;;;;5116263;28;20402;-72
2024/03/24 12:24:03;;;;;;;2.35;0.82;;;8.50;90.00;;;;;;5099557;28;20046;-72
2024/03/24 12:26:29;;;;;;;2.33;0.90;;;8.40;90.00;;;;;;5132940;27;20035;-72
2024/03/24 12:28:58;;;;;;;4.50;0.70;;;8.60;90.10;;;;;;5099164;28;20039;-73
2024/03/24 12:31:25;;;;;;;3.25;0.80;;;8.70;89.90;;;;;;5099461;27;20043;-72
2024/03/24 12:33:53;;;;;;;4.63;0.98;;;8.80;89.70;;;;;;5099084;27;20035;-72
2024/03/24 12:36:20;;;;;;;2.30;0.70;;;9.00;89.40;;;;;;5096196;28;20112;-72
2024/03/24 12:38:48;;;;;;;2.92;0.82;;;9.30;89.30;;;;;;5134163;27;20074;-73
2024/03/24 12:41:21;;;;;;;2.28;0.70;;;9.40;88.70;;;;;;5116574;28;20041;-72
2024/03/24 12:43:56;;;;;;;1.13;0.57;;;9.60;88.50;;;;;;5114707;28;20043;-71
2024/03/24 12:46:25;;;;;;;1.77;0.68;;;9.70;88.20;;;;;;5116056;27;20043;-72
2024/03/24 12:48:50;;;;;;;1.98;0.65;;;9.80;87.90;;;;;;5134359;27;20062;-72
2024/03/24 12:51:16;;;;;;;3.40;0.95;;;9.80;87.50;;;;;;5134472;27;20071;-71
2024/03/24 12:54:01;;;;;;;1.92;0.95;;;9.80;87.40;;;;;;5115991;28;20508;-74
2024/03/24 12:56:27;;;;;;;2.58;0.93;;;9.60;87.70;;;;;;5133831;27;20047;-74
2024/03/24 12:58:53;;;;;;;1.50;0.80;;;9.70;87.80;;;;;;5133942;27;20035;-71
2024/03/24 13:01:20;;;;;;;2.05;0.70;;;9.70;87.60;;;;;;5134237;27;20043;-72